Time;durP1;ratioP1;P1;durP2;ratioP2;P2;SDS_P1;SDS_P2;PMS_P1;PMS_P2;Temp;Humidity;BMP_temperature;BMP_pressure;BME280_temperature;BME280_humidity;BME280_pressure;Samples;Min_cycle;Max_cycle;Signal;HPM_P1;HPM_P2
2021/07/27 00:01:07;;;;;;;1.50;1.00;;;16.50;98.00;;;;;;5092179;28;20958;-69
2021/07/27 00:03:34;;;;;;;1.20;1.10;;;16.40;98.00;;;;;;5091371;28;21015;-69
2021/07/27 00:06:01;;;;;;;1.60;1.20;;;16.50;98.00;;;;;;5092077;28;20563;-69
2021/07/27 00:08:28;;;;;;;1.90;1.30;;;16.50;98.00;;;;;;5092017;28;20483;-70
2021/07/27 00:10:55;;;;;;;1.40;1.10;;;16.40;98.00;;;;;;5092047;28;20977;-68
2021/07/27 00:13:22;;;;;;;1.53;1.20;;;16.40;98.00;;;;;;5091904;28;20499;-69
2021/07/27 00:15:50;;;;;;;1.20;1.10;;;16.50;98.00;;;;;;5090649;28;20596;-72
2021/07/27 00:18:22;;;;;;;1.20;1.10;;;16.60;98.00;;;;;;5091840;28;20521;-68
2021/07/27 00:20:49;;;;;;;2.17;1.40;;;16.60;98.00;;;;;;5091850;28;20463;-69
2021/07/27 00:23:16;;;;;;;1.30;1.17;;;16.50;98.00;;;;;;5091779;28;20474;-69
2021/07/27 00:25:44;;;;;;;2.27;1.20;;;16.60;98.00;;;;;;5091589;28;20455;-69
2021/07/27 00:28:11;;;;;;;1.40;1.33;;;16.60;98.00;;;;;;5091564;28;20471;-69
2021/07/27 00:30:38;;;;;;;1.20;1.10;;;16.60;98.00;;;;;;5091481;28;20452;-70
2021/07/27 00:33:06;;;;;;;1.20;1.00;;;16.60;98.00;;;;;;5091703;28;20897;-68
2021/07/27 00:35:34;;;;;;;1.40;1.40;;;16.60;98.00;;;;;;5091634;28;20942;-67
2021/07/27 00:38:09;;;;;;;1.47;1.37;;;16.50;98.00;;;;;;5091637;28;20456;-69
2021/07/27 00:40:36;;;;;;;2.27;1.27;;;16.50;98.00;;;;;;5091661;28;20452;-71
2021/07/27 00:43:05;;;;;;;1.20;1.00;;;16.40;98.00;;;;;;5091523;28;20462;-68
2021/07/27 00:45:34;;;;;;;2.27;1.70;;;16.50;98.00;;;;;;5091671;28;20749;-69
2021/07/27 00:48:01;;;;;;;2.03;1.90;;;16.40;98.00;;;;;;5091354;28;20537;-69
2021/07/27 00:50:30;;;;;;;1.20;1.07;;;16.20;98.00;;;;;;5091107;28;20484;-70
2021/07/27 00:53:01;;;;;;;2.17;2.00;;;16.00;98.00;;;;;;5091062;28;20524;-70
2021/07/27 00:55:29;;;;;;;1.20;1.20;;;16.00;98.00;;;;;;5091372;28;20482;-69
2021/07/27 00:57:56;;;;;;;2.27;1.20;;;16.00;98.00;;;;;;5091359;28;20455;-68
2021/07/27 01:00:25;;;;;;;1.50;1.20;;;16.00;98.00;;;;;;5091418;28;20817;-71
2021/07/27 01:02:52;;;;;;;2.40;1.43;;;16.10;98.00;;;;;;5091485;28;20925;-69
2021/07/27 01:05:19;;;;;;;1.60;1.43;;;16.10;98.00;;;;;;5091677;28;20619;-68
2021/07/27 01:07:49;;;;;;;1.20;1.13;;;16.30;98.00;;;;;;5091080;28;20490;-68
2021/07/27 01:10:17;;;;;;;1.20;1.10;;;16.30;98.00;;;;;;5091311;28;20463;-68
2021/07/27 01:12:46;;;;;;;1.50;1.10;;;16.30;98.00;;;;;;5091053;28;20466;-70
2021/07/27 01:15:13;;;;;;;1.60;1.20;;;16.40;98.00;;;;;;5089682;28;20463;-68
2021/07/27 01:17:41;;;;;;;1.30;1.20;;;16.40;98.00;;;;;;5091029;28;20489;-69
2021/07/27 01:20:16;;;;;;;1.50;1.30;;;16.30;98.00;;;;;;5090758;28;20798;-69
2021/07/27 01:39:26;;;;;;;1.20;1.20;;;16.00;98.00;;;;;;5090917;28;20467;-69
2021/07/27 01:42:07;;;;;;;1.80;1.60;;;15.90;98.00;;;;;;5090809;28;20463;-68
2021/07/27 01:44:42;;;;;;;1.20;1.10;;;16.00;98.00;;;;;;5090682;28;20520;-68
2021/07/27 01:47:09;;;;;;;1.20;1.10;;;16.00;98.00;;;;;;5090720;28;20540;-69
2021/07/27 01:49:45;;;;;;;2.13;1.30;;;16.00;98.00;;;;;;5090733;28;20463;-70
2021/07/27 01:52:14;;;;;;;1.40;1.37;;;16.00;98.00;;;;;;5090668;28;20465;-68
2021/07/27 01:54:58;;;;;;;1.90;1.20;;;16.00;98.00;;;;;;5090665;28;20811;-72
2021/07/27 01:57:31;;;;;;;1.20;1.00;;;16.10;98.00;;;;;;5089739;28;20456;-69
2021/07/27 02:00:08;;;;;;;1.30;1.10;;;16.00;98.00;;;;;;5090599;28;20459;-68
2021/07/27 02:02:39;;;;;;;1.30;1.20;;;16.00;98.00;;;;;;5089318;28;20501;-69
2021/07/27 02:05:11;;;;;;;1.83;1.20;;;16.00;98.00;;;;;;5090676;28;20489;-70
2021/07/27 02:07:38;;;;;;;1.30;1.13;;;15.80;98.00;;;;;;5090498;28;20487;-68
2021/07/27 02:10:12;;;;;;;1.83;1.40;;;16.00;98.00;;;;;;5090552;28;20949;-70
2021/07/27 02:12:49;;;;;;;1.40;1.20;;;16.00;98.00;;;;;;5090533;28;20882;-70
2021/07/27 02:15:18;;;;;;;1.20;1.00;;;15.90;98.00;;;;;;5090454;28;20459;-68
2021/07/27 02:17:47;;;;;;;1.30;1.20;;;15.80;98.00;;;;;;5090295;28;20525;-70
2021/07/27 02:20:15;;;;;;;2.13;1.37;;;15.80;98.00;;;;;;5090790;28;20459;-69
2021/07/27 02:22:42;;;;;;;1.20;1.20;;;15.70;98.00;;;;;;5090566;28;20459;-70
2021/07/27 02:25:12;;;;;;;1.20;1.10;;;15.60;98.00;;;;;;5090634;28;20525;-69
2021/07/27 02:27:41;;;;;;;1.30;1.10;;;15.70;98.00;;;;;;5093372;28;20526;-70
2021/07/27 02:30:09;;;;;;;2.03;1.30;;;15.80;98.00;;;;;;5094010;28;20490;-68
2021/07/27 02:32:37;;;;;;;1.40;1.30;;;15.90;98.00;;;;;;5093874;28;20495;-71
2021/07/27 02:35:07;;;;;;;1.20;1.00;;;15.90;98.00;;;;;;5093864;28;20459;-70
2021/07/27 02:37:36;;;;;;;1.43;1.23;;;16.00;98.00;;;;;;5093887;28;20462;-68
2021/07/27 02:40:04;;;;;;;1.40;1.20;;;16.00;98.00;;;;;;5092542;28;20463;-68
2021/07/27 02:42:32;;;;;;;1.30;1.20;;;15.80;98.00;;;;;;5093713;28;20460;-69
2021/07/27 02:45:00;;;;;;;1.20;1.10;;;15.60;98.00;;;;;;5093750;28;20463;-69
2021/07/27 02:47:27;;;;;;;1.20;1.07;;;15.60;98.00;;;;;;5093545;28;20522;-69
2021/07/27 02:49:54;;;;;;;2.23;1.20;;;15.50;98.00;;;;;;5093682;28;20874;-68
2021/07/27 02:52:21;;;;;;;1.20;1.00;;;15.60;98.00;;;;;;5093588;28;20459;-70
2021/07/27 02:54:47;;;;;;;2.07;1.30;;;15.80;98.00;;;;;;5093504;28;20883;-68
2021/07/27 02:57:15;;;;;;;1.20;1.20;;;15.80;98.00;;;;;;5093502;28;20478;-69
2021/07/27 02:59:44;;;;;;;1.50;1.10;;;15.80;98.00;;;;;;5093342;28;21022;-70
2021/07/27 03:02:11;;;;;;;3.33;1.20;;;15.70;98.00;;;;;;5093341;28;20460;-68
2021/07/27 03:04:38;;;;;;;1.20;1.10;;;15.70;98.00;;;;;;5093241;28;21026;-67
2021/07/27 03:07:06;;;;;;;1.20;1.10;;;15.70;98.00;;;;;;5093065;28;20579;-69
2021/07/27 03:09:45;;;;;;;1.20;1.20;;;15.70;98.00;;;;;;5093174;28;20451;-70
2021/07/27 03:12:12;;;;;;;1.50;1.10;;;15.70;98.00;;;;;;5093277;28;20447;-68
2021/07/27 03:14:39;;;;;;;1.63;1.33;;;15.60;98.00;;;;;;5093156;28;20456;-69
2021/07/27 03:17:07;;;;;;;1.40;1.30;;;15.60;98.00;;;;;;5093112;28;20919;-69
2021/07/27 03:19:34;;;;;;;1.30;1.20;;;15.70;98.00;;;;;;5092963;28;20544;-68
2021/07/27 03:22:01;;;;;;;1.50;1.30;;;15.70;98.00;;;;;;5093093;28;20988;-68
2021/07/27 03:24:28;;;;;;;1.20;1.07;;;15.70;98.00;;;;;;5092935;28;20464;-68
2021/07/27 03:26:55;;;;;;;1.70;1.40;;;15.70;98.00;;;;;;5092844;28;20560;-69
2021/07/27 03:29:22;;;;;;;1.20;1.00;;;15.60;98.00;;;;;;5092824;28;20452;-68
2021/07/27 03:31:50;;;;;;;1.20;1.10;;;15.70;98.00;;;;;;5093040;28;20849;-69
2021/07/27 03:34:18;;;;;;;1.97;1.40;;;15.60;98.00;;;;;;5093068;28;20456;-68
2021/07/27 03:36:51;;;;;;;1.20;1.00;;;15.60;98.00;;;;;;5092559;28;20460;-68
2021/07/27 03:39:18;;;;;;;1.20;1.10;;;15.60;98.00;;;;;;5091877;28;20469;-70
2021/07/27 03:41:45;;;;;;;1.30;1.20;;;15.60;98.00;;;;;;5092958;28;20455;-68
2021/07/27 03:44:12;;;;;;;1.57;1.30;;;15.60;98.00;;;;;;5092698;28;20947;-69
2021/07/27 03:46:54;;;;;;;1.40;1.30;;;15.60;98.00;;;;;;5092555;28;20586;-68
2021/07/27 03:49:22;;;;;;;1.20;1.00;;;15.60;98.00;;;;;;5092485;28;20466;-68
2021/07/27 03:51:49;;;;;;;1.20;1.00;;;15.60;98.00;;;;;;5092373;28;20530;-71
2021/07/27 03:54:17;;;;;;;1.70;1.30;;;15.60;98.00;;;;;;5092396;28;20524;-69
2021/07/27 03:56:45;;;;;;;1.43;1.10;;;15.50;98.00;;;;;;5092227;28;20491;-69
2021/07/27 03:59:14;;;;;;;1.40;1.23;;;15.40;98.00;;;;;;5092269;28;20507;-69
2021/07/27 04:01:41;;;;;;;1.23;1.23;;;15.20;98.00;;;;;;5092367;28;20828;-70
2021/07/27 04:04:08;;;;;;;1.60;1.20;;;15.10;98.00;;;;;;5092118;28;20459;-68
2021/07/27 04:06:37;;;;;;;2.13;1.20;;;15.10;98.00;;;;;;5092032;28;20555;-69
2021/07/27 04:09:04;;;;;;;1.37;1.10;;;15.20;98.00;;;;;;5091896;28;20530;-67
2021/07/27 04:11:31;;;;;;;1.20;1.00;;;15.40;98.00;;;;;;5091957;28;20455;-68
2021/07/27 04:13:58;;;;;;;1.30;1.20;;;15.40;98.00;;;;;;5092061;28;20454;-69
2021/07/27 04:16:25;;;;;;;1.30;1.10;;;15.50;98.00;;;;;;5092081;28;20469;-68
2021/07/27 04:18:53;;;;;;;1.20;1.10;;;15.50;98.00;;;;;;5091111;28;20487;-70
2021/07/27 04:21:19;;;;;;;1.50;1.27;;;15.40;98.00;;;;;;5092229;28;20571;-70
2021/07/27 04:23:48;;;;;;;1.20;1.00;;;15.40;98.00;;;;;;5091876;28;21569;-69
2021/07/27 04:26:15;;;;;;;2.07;1.30;;;15.20;98.00;;;;;;5091912;28;20984;-69
2021/07/27 04:28:42;;;;;;;1.20;1.00;;;15.20;98.00;;;;;;5091774;28;20519;-70
2021/07/27 04:31:09;;;;;;;1.30;1.23;;;15.50;98.00;;;;;;5092851;28;20455;-72
2021/07/27 04:33:37;;;;;;;1.40;1.30;;;15.70;98.00;;;;;;5092183;28;20490;-69
2021/07/27 04:36:05;;;;;;;1.20;1.07;;;15.80;98.00;;;;;;5092357;28;20458;-69
2021/07/27 04:38:32;;;;;;;1.40;1.20;;;15.80;98.00;;;;;;5092223;28;20482;-68
2021/07/27 04:41:06;;;;;;;1.20;1.00;;;15.80;98.00;;;;;;5092107;28;20465;-71
2021/07/27 04:43:34;;;;;;;1.20;1.03;;;15.80;98.00;;;;;;5091408;28;20463;-69
2021/07/27 04:46:02;;;;;;;1.30;1.07;;;15.80;98.00;;;;;;5091695;28;20460;-69
2021/07/27 04:48:29;;;;;;;1.20;1.03;;;15.70;98.00;;;;;;5091220;28;20554;-68
2021/07/27 04:50:56;;;;;;;1.20;1.00;;;15.60;98.00;;;;;;5091585;28;20491;-68
2021/07/27 04:53:24;;;;;;;1.20;1.03;;;15.60;98.00;;;;;;5091469;28;20472;-69
2021/07/27 04:55:52;;;;;;;1.60;1.20;;;15.60;98.00;;;;;;5091673;28;20960;-68
2021/07/27 04:58:20;;;;;;;1.90;1.17;;;15.60;98.00;;;;;;5091556;28;20862;-68
2021/07/27 05:00:47;;;;;;;1.20;1.00;;;15.70;98.00;;;;;;5091442;28;20498;-68
2021/07/27 05:03:14;;;;;;;1.40;1.10;;;15.70;98.00;;;;;;5091519;28;21120;-69
2021/07/27 05:05:41;;;;;;;1.20;1.10;;;15.80;98.00;;;;;;5091422;28;20474;-69
2021/07/27 05:08:09;;;;;;;1.60;1.10;;;15.90;98.00;;;;;;5091132;28;20892;-69
2021/07/27 05:10:36;;;;;;;1.20;1.03;;;15.80;98.00;;;;;;5090254;28;20487;-69
2021/07/27 05:13:06;;;;;;;1.20;1.00;;;15.70;98.00;;;;;;5091248;28;20532;-68
2021/07/27 05:15:34;;;;;;;1.20;1.07;;;15.80;98.00;;;;;;5089924;28;20481;-68
2021/07/27 05:18:01;;;;;;;1.20;1.10;;;15.80;98.00;;;;;;5091125;28;20492;-68
2021/07/27 05:20:28;;;;;;;1.20;1.10;;;15.80;98.00;;;;;;5091151;28;20484;-68
2021/07/27 05:22:55;;;;;;;1.40;1.13;;;15.80;98.00;;;;;;5091070;28;20731;-68
2021/07/27 05:25:23;;;;;;;1.73;1.20;;;15.90;98.00;;;;;;5090961;28;20479;-68
2021/07/27 05:27:51;;;;;;;1.13;1.10;;;16.10;98.00;;;;;;5090686;28;20560;-70
2021/07/27 05:30:20;;;;;;;1.70;1.20;;;16.20;98.00;;;;;;5090811;28;20504;-68
2021/07/27 05:32:48;;;;;;;1.77;1.20;;;16.10;98.00;;;;;;5090960;28;20462;-70
2021/07/27 05:35:16;;;;;;;2.10;1.23;;;16.20;98.00;;;;;;5090902;28;20457;-71
2021/07/27 05:37:44;;;;;;;2.17;1.43;;;16.40;98.00;;;;;;5090804;28;20463;-69
2021/07/27 05:40:18;;;;;;;1.30;1.10;;;16.40;98.00;;;;;;5090714;28;20511;-68
2021/07/27 05:42:44;;;;;;;1.50;1.20;;;16.10;98.00;;;;;;5090760;28;20456;-68
2021/07/27 05:45:12;;;;;;;1.20;1.10;;;16.00;98.00;;;;;;5090605;28;20464;-70
2021/07/27 05:47:39;;;;;;;1.30;1.20;;;16.00;98.00;;;;;;5090771;28;20558;-68
2021/07/27 05:50:10;;;;;;;1.20;1.20;;;16.10;98.00;;;;;;5090741;28;20464;-69
2021/07/27 05:52:37;;;;;;;1.20;1.20;;;16.10;98.00;;;;;;5090813;28;20875;-69
2021/07/27 05:55:06;;;;;;;1.10;1.00;;;16.10;98.00;;;;;;5090665;28;20491;-69
2021/07/27 05:57:33;;;;;;;1.10;1.00;;;16.10;98.00;;;;;;5089694;28;20961;-69
2021/07/27 06:00:00;;;;;;;1.20;1.07;;;16.20;98.00;;;;;;5089446;28;20716;-68
2021/07/27 06:02:28;;;;;;;1.40;1.10;;;16.40;98.00;;;;;;5093857;28;20520;-71
2021/07/27 06:04:55;;;;;;;1.40;1.30;;;16.50;98.00;;;;;;5094299;28;20543;-68
2021/07/27 06:07:24;;;;;;;1.10;1.00;;;16.50;98.00;;;;;;5094563;28;20462;-69
2021/07/27 06:09:52;;;;;;;1.20;1.13;;;16.50;98.00;;;;;;5094240;28;20547;-69
2021/07/27 06:12:19;;;;;;;1.20;1.20;;;16.60;98.00;;;;;;5094509;28;20556;-68
2021/07/27 06:14:47;;;;;;;1.30;1.20;;;16.80;98.00;;;;;;5094309;28;20522;-68
2021/07/27 06:17:15;;;;;;;1.40;1.30;;;17.10;98.00;;;;;;5094538;28;20450;-68
2021/07/27 06:19:42;;;;;;;1.87;1.20;;;17.20;98.00;;;;;;5094402;28;20495;-68
2021/07/27 06:22:09;;;;;;;2.40;1.67;;;17.50;98.00;;;;;;5094546;28;20508;-70
2021/07/27 06:24:38;;;;;;;1.20;1.20;;;17.70;98.00;;;;;;5094513;28;20945;-67
2021/07/27 06:27:05;;;;;;;2.07;1.67;;;17.90;98.00;;;;;;5094083;28;20471;-67
2021/07/27 06:29:32;;;;;;;1.20;1.10;;;18.00;98.00;;;;;;5092527;28;21020;-68
2021/07/27 06:31:59;;;;;;;1.30;1.27;;;18.20;98.00;;;;;;5094026;28;20456;-68
2021/07/27 06:34:26;;;;;;;1.67;1.40;;;18.30;98.00;;;;;;5093741;28;20460;-69
2021/07/27 06:36:53;;;;;;;1.30;1.20;;;18.40;98.00;;;;;;5093933;28;20870;-69
2021/07/27 06:42:11;;;;;;;1.40;1.30;;;18.40;98.00;;;;;;5092418;28;20894;-68
2021/07/27 06:44:38;;;;;;;1.90;1.47;;;18.50;98.00;;;;;;5093876;28;20448;-69
2021/07/27 06:47:05;;;;;;;1.67;1.60;;;18.70;98.00;;;;;;5094300;28;20456;-67
2021/07/27 06:49:32;;;;;;;1.40;1.30;;;18.70;98.00;;;;;;5093501;28;20900;-67
2021/07/27 06:51:59;;;;;;;1.57;1.27;;;18.80;98.00;;;;;;5093715;28;20491;-67
2021/07/27 06:54:26;;;;;;;1.93;1.30;;;19.00;98.00;;;;;;5093517;28;20491;-69
2021/07/27 06:56:55;;;;;;;1.40;1.30;;;19.10;98.00;;;;;;5093455;28;20448;-68
2021/07/27 06:59:24;;;;;;;1.50;1.30;;;19.30;98.00;;;;;;5093443;28;20911;-69
2021/07/27 07:01:52;;;;;;;1.50;1.40;;;19.40;98.00;;;;;;5093455;28;20517;-68
2021/07/27 07:04:19;;;;;;;1.60;1.50;;;19.50;98.00;;;;;;5093338;28;20498;-68
2021/07/27 07:06:48;;;;;;;1.20;1.10;;;19.40;98.00;;;;;;5093399;28;20491;-68
2021/07/27 07:09:15;;;;;;;1.30;1.10;;;19.50;98.00;;;;;;5092115;28;20520;-68
2021/07/27 07:11:45;;;;;;;1.70;1.30;;;19.50;98.00;;;;;;5092832;28;20517;-68
2021/07/27 07:14:12;;;;;;;1.63;1.50;;;19.40;98.00;;;;;;5091772;28;20452;-69
2021/07/27 07:16:44;;;;;;;1.90;1.57;;;19.40;98.00;;;;;;5093045;28;20513;-68
2021/07/27 07:19:11;;;;;;;1.20;1.20;;;19.40;98.00;;;;;;5092756;28;20524;-69
2021/07/27 07:21:38;;;;;;;1.20;1.10;;;19.50;98.00;;;;;;5093163;28;20456;-68
2021/07/27 07:24:05;;;;;;;3.10;1.43;;;19.70;98.00;;;;;;5093077;28;20513;-69
2021/07/27 07:26:32;;;;;;;2.10;1.47;;;19.70;98.00;;;;;;5092724;28;20460;-69
2021/07/27 07:28:59;;;;;;;1.50;1.43;;;19.70;98.00;;;;;;5092926;28;20619;-68
2021/07/27 07:31:26;;;;;;;1.50;1.50;;;19.70;98.00;;;;;;5092800;28;20488;-71
2021/07/27 07:33:56;;;;;;;2.10;1.57;;;19.80;98.00;;;;;;5092783;28;20513;-69
2021/07/27 07:36:23;;;;;;;1.73;1.53;;;19.80;98.00;;;;;;5092746;28;20460;-68
2021/07/27 07:38:50;;;;;;;1.83;1.43;;;20.00;98.00;;;;;;5099522;28;20491;-69
2021/07/27 07:41:16;;;;;;;1.27;1.23;;;20.10;98.00;;;;;;5100726;28;20520;-70
2021/07/27 07:43:44;;;;;;;1.40;1.30;;;20.20;98.00;;;;;;5091588;28;20476;-70
2021/07/27 07:46:11;;;;;;;1.47;1.43;;;20.50;98.00;;;;;;5088843;28;20460;-70
2021/07/27 07:48:38;;;;;;;1.40;1.30;;;20.60;98.00;;;;;;5099756;28;20559;-69
2021/07/27 07:51:07;;;;;;;1.67;1.57;;;20.70;98.00;;;;;;5094433;28;20456;-68
2021/07/27 07:53:34;;;;;;;1.97;1.50;;;20.70;98.00;;;;;;5099136;28;20505;-70
2021/07/27 07:56:02;;;;;;;1.67;1.30;;;20.80;98.00;;;;;;5099886;28;21059;-69
2021/07/27 07:58:29;;;;;;;12.53;1.93;;;20.90;98.00;;;;;;5108606;28;20459;-69
2021/07/27 08:00:56;;;;;;;1.63;1.53;;;21.00;98.00;;;;;;5108105;28;20530;-71
2021/07/27 08:03:24;;;;;;;1.60;1.37;;;21.10;98.00;;;;;;5099933;28;20462;-70
2021/07/27 08:05:56;;;;;;;1.40;1.20;;;21.00;98.00;;;;;;5108063;28;20478;-68
2021/07/27 08:08:24;;;;;;;2.10;1.57;;;21.00;98.00;;;;;;5091211;28;20472;-71
2021/07/27 08:10:51;;;;;;;2.03;1.70;;;21.10;98.00;;;;;;5107864;28;20505;-69
2021/07/27 08:13:18;;;;;;;1.53;1.47;;;21.30;98.00;;;;;;5108263;28;20485;-70
2021/07/27 08:15:45;;;;;;;1.67;1.30;;;21.50;98.00;;;;;;5108088;28;20499;-71
2021/07/27 08:18:13;;;;;;;1.57;1.47;;;21.60;98.00;;;;;;5099920;28;20455;-68
2021/07/27 08:20:40;;;;;;;1.57;1.30;;;21.80;98.00;;;;;;5098831;28;20515;-68
2021/07/27 08:23:07;;;;;;;1.80;1.50;;;21.90;98.00;;;;;;5089849;28;20884;-70
2021/07/27 08:25:36;;;;;;;1.70;1.33;;;22.00;98.00;;;;;;5099532;28;20452;-68
2021/07/27 08:28:03;;;;;;;1.47;1.33;;;22.10;98.00;;;;;;5097693;28;20899;-68
2021/07/27 08:30:30;;;;;;;1.50;1.50;;;22.30;98.00;;;;;;5087106;28;20482;-68
2021/07/27 08:32:59;;;;;;;1.53;1.50;;;22.40;98.00;;;;;;5098975;28;20455;-68
2021/07/27 08:35:26;;;;;;;1.93;1.77;;;22.40;98.00;;;;;;5100454;28;20491;-70
2021/07/27 08:37:53;;;;;;;1.63;1.60;;;22.60;98.00;;;;;;5090921;28;20476;-69
2021/07/27 08:40:22;;;;;;;1.50;1.37;;;22.60;98.00;;;;;;5099474;28;20537;-70
2021/07/27 08:42:51;;;;;;;1.40;1.33;;;22.50;98.00;;;;;;5089914;28;20794;-68
2021/07/27 08:45:18;;;;;;;1.50;1.40;;;22.60;98.00;;;;;;5098159;28;20508;-69
2021/07/27 08:47:47;;;;;;;1.63;1.60;;;22.50;98.00;;;;;;5099881;28;20464;-69
2021/07/27 08:50:14;;;;;;;1.40;1.33;;;22.60;98.00;;;;;;5103832;28;20490;-68
2021/07/27 08:52:41;;;;;;;1.27;1.27;;;22.70;98.00;;;;;;5099668;28;20452;-69
2021/07/27 08:55:12;;;;;;;3.03;1.83;;;22.70;98.00;;;;;;5098516;28;20488;-68
2021/07/27 08:57:47;;;;;;;1.20;1.20;;;22.60;98.00;;;;;;5091265;28;20541;-69
2021/07/27 09:00:16;;;;;;;1.40;1.30;;;22.70;98.00;;;;;;5090825;28;20451;-70
2021/07/27 09:02:43;;;;;;;1.30;1.10;;;22.70;98.00;;;;;;5098851;28;21114;-68
2021/07/27 09:05:12;;;;;;;1.20;1.20;;;22.70;98.00;;;;;;5089883;28;20544;-70
2021/07/27 09:07:41;;;;;;;1.30;1.30;;;22.70;98.00;;;;;;5089948;28;20503;-70
2021/07/27 09:10:16;;;;;;;2.20;1.50;;;22.70;98.00;;;;;;5089109;28;20503;-70
2021/07/27 09:12:55;;;;;;;1.70;1.30;;;22.70;98.00;;;;;;5088366;28;20486;-69
2021/07/27 09:15:24;;;;;;;1.33;1.33;;;22.70;98.00;;;;;;5090193;28;20477;-69
2021/07/27 09:17:54;;;;;;;1.57;1.57;;;22.70;98.00;;;;;;5097594;28;20490;-68
2021/07/27 09:20:32;;;;;;;1.30;1.30;;;22.70;98.00;;;;;;5098970;28;21037;-68
2021/07/27 09:23:01;;;;;;;1.30;1.30;;;22.80;98.00;;;;;;5092188;28;20486;-67
2021/07/27 09:25:30;;;;;;;1.80;1.40;;;23.10;98.00;;;;;;5102220;28;20516;-69
2021/07/27 09:28:02;;;;;;;1.50;1.50;;;23.30;98.00;;;;;;5098264;28;20460;-69
2021/07/27 09:30:30;;;;;;;2.37;1.60;;;23.50;98.00;;;;;;5090373;28;20905;-69
2021/07/27 09:32:58;;;;;;;1.60;1.40;;;23.70;98.00;;;;;;5084695;28;20448;-70
2021/07/27 09:35:25;;;;;;;1.60;1.50;;;23.70;98.00;;;;;;5084546;28;20446;-68
2021/07/27 09:38:08;;;;;;;3.30;2.20;;;23.80;98.00;;;;;;5098580;28;20549;-69
2021/07/27 09:40:37;;;;;;;1.40;1.30;;;24.00;98.00;;;;;;5090135;28;20947;-68
2021/07/27 09:43:04;;;;;;;1.50;1.50;;;24.10;98.00;;;;;;5101143;28;21013;-69
2021/07/27 09:45:33;;;;;;;1.70;1.60;;;24.10;98.00;;;;;;5107155;28;20863;-68
2021/07/27 09:48:05;;;;;;;1.83;1.50;;;24.00;98.00;;;;;;5102097;28;20458;-70
2021/07/27 09:50:34;;;;;;;2.23;1.80;;;23.80;98.00;;;;;;5103869;28;20573;-69
2021/07/27 09:53:02;;;;;;;1.67;1.20;;;23.80;98.00;;;;;;5102739;28;20463;-68
2021/07/27 09:55:32;;;;;;;1.40;1.40;;;23.90;98.00;;;;;;5111159;28;20487;-68
2021/07/27 09:58:01;;;;;;;2.03;1.60;;;24.00;98.00;;;;;;5105076;28;20576;-68
2021/07/27 10:00:28;;;;;;;2.00;1.80;;;24.20;98.00;;;;;;5093980;28;20501;-68
2021/07/27 10:02:57;;;;;;;1.63;1.50;;;24.50;98.00;;;;;;5102711;28;20533;-69
2021/07/27 10:05:27;;;;;;;2.30;1.63;;;24.80;98.00;;;;;;5092764;28;20546;-70
2021/07/27 10:07:57;;;;;;;1.83;1.40;;;25.00;97.60;;;;;;5081831;28;20456;-69
2021/07/27 10:10:37;;;;;;;2.10;1.60;;;25.10;96.50;;;;;;5099661;28;20551;-68
2021/07/27 10:13:09;;;;;;;2.00;1.47;;;25.30;97.90;;;;;;5100887;28;20462;-71
2021/07/27 10:15:41;;;;;;;3.70;2.00;;;25.40;96.10;;;;;;5102353;28;20458;-70
2021/07/27 10:18:10;;;;;;;1.87;1.40;;;25.50;95.70;;;;;;5110184;28;20487;-70
2021/07/27 10:20:38;;;;;;;1.50;1.30;;;25.60;96.70;;;;;;5093719;28;20969;-70
2021/07/27 10:23:19;;;;;;;1.70;1.53;;;25.80;97.20;;;;;;5110120;28;21022;-69
2021/07/27 10:25:59;;;;;;;3.30;1.70;;;26.00;95.70;;;;;;5103385;28;20484;-68
2021/07/27 10:28:28;;;;;;;2.20;1.70;;;25.90;92.70;;;;;;5107046;27;20491;-70
2021/07/27 10:31:08;;;;;;;2.43;1.93;;;25.80;94.60;;;;;;5096467;28;20571;-68
2021/07/27 10:33:37;;;;;;;1.50;1.30;;;25.80;96.40;;;;;;5110788;28;20486;-69
2021/07/27 10:36:05;;;;;;;1.83;1.53;;;25.90;96.20;;;;;;5105411;28;20443;-69
2021/07/27 10:38:41;;;;;;;1.77;1.67;;;26.10;96.00;;;;;;5093173;28;20502;-68
2021/07/27 10:41:17;;;;;;;1.63;1.40;;;26.30;92.70;;;;;;5093574;28;20539;-69
2021/07/27 10:43:44;;;;;;;2.33;1.67;;;26.40;91.10;;;;;;5098768;28;20478;-69
2021/07/27 10:46:12;;;;;;;2.67;1.50;;;26.50;92.90;;;;;;5110036;28;20458;-69
2021/07/27 10:48:42;;;;;;;1.57;1.53;;;26.70;92.20;;;;;;5101192;28;20508;-68
2021/07/27 10:51:10;;;;;;;1.67;1.50;;;26.80;90.40;;;;;;5106756;28;20559;-69
2021/07/27 10:53:38;;;;;;;2.50;1.80;;;26.80;89.50;;;;;;5092752;28;20823;-69
2021/07/27 10:56:08;;;;;;;1.80;1.50;;;26.90;90.10;;;;;;5103914;28;20456;-69
2021/07/27 10:58:36;;;;;;;1.80;1.70;;;26.90;89.70;;;;;;5093263;28;20478;-71
2021/07/27 11:01:11;;;;;;;1.60;1.50;;;26.70;87.90;;;;;;5093617;28;20537;-69
2021/07/27 11:03:40;;;;;;;1.93;1.57;;;26.60;91.80;;;;;;5073625;28;20510;-69
2021/07/27 11:06:10;;;;;;;2.13;1.40;;;26.90;89.90;;;;;;5101701;28;20447;-69
2021/07/27 11:08:37;;;;;;;2.07;1.60;;;27.30;87.30;;;;;;5101624;28;20854;-69
2021/07/27 11:11:06;;;;;;;2.00;1.53;;;27.20;86.80;;;;;;5101392;28;20492;-69
2021/07/27 11:13:33;;;;;;;3.30;1.50;;;27.40;88.90;;;;;;5101232;28;20460;-69
2021/07/27 11:16:01;;;;;;;2.27;1.43;;;27.60;86.80;;;;;;5110416;28;20516;-69
2021/07/27 11:18:29;;;;;;;2.57;2.00;;;27.80;86.40;;;;;;5093830;28;20479;-69
2021/07/27 11:20:57;;;;;;;2.30;1.90;;;28.00;86.80;;;;;;5092906;28;20518;-69
2021/07/27 11:23:32;;;;;;;2.20;1.60;;;28.00;85.00;;;;;;5093229;28;20456;-69
2021/07/27 11:26:00;;;;;;;2.33;1.80;;;28.20;83.60;;;;;;5101791;28;20535;-70
2021/07/27 11:28:35;;;;;;;2.33;1.60;;;28.30;85.70;;;;;;5092565;28;20464;-69
2021/07/27 11:31:02;;;;;;;1.53;1.47;;;28.30;83.80;;;;;;5108801;28;20942;-70
2021/07/27 11:33:30;;;;;;;1.90;1.47;;;28.00;84.50;;;;;;5091549;28;20561;-69
2021/07/27 11:35:58;;;;;;;1.73;1.40;;;27.40;83.40;;;;;;5108687;28;21078;-70
2021/07/27 11:38:29;;;;;;;1.70;1.40;;;27.20;84.30;;;;;;5098394;28;20483;-70
2021/07/27 11:41:05;;;;;;;1.80;1.53;;;27.60;84.20;;;;;;5099660;28;20531;-69
2021/07/27 11:43:33;;;;;;;1.60;1.50;;;27.90;83.10;;;;;;5092212;28;20898;-70
2021/07/27 11:46:08;;;;;;;2.67;1.83;;;28.10;83.40;;;;;;5100497;28;20488;-69
2021/07/27 11:48:36;;;;;;;3.10;1.87;;;28.50;83.50;;;;;;5092601;28;20451;-69
2021/07/27 11:51:04;;;;;;;1.83;1.57;;;28.60;82.50;;;;;;5078132;28;20554;-70
2021/07/27 11:53:36;;;;;;;1.60;1.60;;;28.60;81.70;;;;;;5073131;28;20813;-68
2021/07/27 11:56:14;;;;;;;1.90;1.70;;;28.90;82.60;;;;;;5073180;28;20465;-68
2021/07/27 11:58:41;;;;;;;2.40;1.90;;;29.00;81.50;;;;;;5071178;28;20461;-69
2021/07/27 12:01:10;;;;;;;1.40;1.30;;;28.90;82.20;;;;;;5072297;28;21023;-68
2021/07/27 12:03:37;;;;;;;1.90;1.80;;;28.70;79.60;;;;;;5071921;28;20544;-68
2021/07/27 12:06:11;;;;;;;2.20;1.80;;;28.80;82.00;;;;;;5071651;28;20476;-69
2021/07/27 12:08:41;;;;;;;1.80;1.60;;;28.50;80.90;;;;;;5071988;28;20483;-71
2021/07/27 12:11:09;;;;;;;1.57;1.50;;;28.10;81.10;;;;;;5071968;28;20900;-69
2021/07/27 12:13:42;;;;;;;2.17;1.63;;;27.90;82.80;;;;;;5072481;28;20457;-68
2021/07/27 12:16:09;;;;;;;2.17;1.73;;;27.70;85.10;;;;;;5072600;28;20869;-69
2021/07/27 12:18:36;;;;;;;2.40;1.90;;;27.50;85.40;;;;;;5071144;28;20499;-68
2021/07/27 12:21:12;;;;;;;1.70;1.70;;;27.50;86.80;;;;;;5108279;27;1302602;-69
2021/07/27 12:23:39;;;;;;;2.57;1.73;;;27.50;85.70;;;;;;5130056;28;20936;-68
2021/07/27 12:26:06;;;;;;;3.37;2.00;;;27.30;85.50;;;;;;5130075;28;20792;-69
2021/07/27 12:28:34;;;;;;;1.63;1.57;;;27.10;84.10;;;;;;5129958;28;20446;-69
2021/07/27 12:31:01;;;;;;;2.00;1.63;;;27.10;85.60;;;;;;5130059;28;20507;-68
2021/07/27 12:33:30;;;;;;;2.40;1.87;;;27.10;85.60;;;;;;5129911;28;20489;-68
2021/07/27 12:35:59;;;;;;;1.70;1.60;;;27.10;84.10;;;;;;5129925;28;20450;-68
2021/07/27 12:38:28;;;;;;;1.90;1.53;;;27.00;86.40;;;;;;5129891;28;20454;-69
2021/07/27 12:40:55;;;;;;;2.40;1.80;;;27.20;86.80;;;;;;5129531;28;20569;-68
2021/07/27 12:43:24;;;;;;;4.27;2.40;;;27.30;86.80;;;;;;5129820;28;20964;-68
2021/07/27 12:45:53;;;;;;;1.73;1.50;;;27.30;86.30;;;;;;5129660;28;20482;-68
2021/07/27 12:48:19;;;;;;;2.43;1.80;;;27.30;88.40;;;;;;5130004;28;20855;-70
2021/07/27 12:50:49;;;;;;;1.73;1.50;;;27.40;85.80;;;;;;5127445;28;20485;-68
2021/07/27 12:53:17;;;;;;;2.60;1.70;;;27.40;85.10;;;;;;5108539;28;20455;-69
2021/07/27 12:55:46;;;;;;;2.67;1.67;;;27.60;87.70;;;;;;5108380;28;20465;-68
2021/07/27 12:58:13;;;;;;;2.00;1.70;;;27.70;85.50;;;;;;5108436;28;20455;-68
2021/07/27 13:00:40;;;;;;;3.40;1.90;;;27.90;84.90;;;;;;5107995;28;20536;-69
2021/07/27 13:03:07;;;;;;;2.27;1.60;;;28.10;83.10;;;;;;5108295;28;20965;-68
2021/07/27 13:05:34;;;;;;;2.20;1.77;;;28.50;83.90;;;;;;5108023;28;20455;-69
2021/07/27 13:08:01;;;;;;;1.87;1.80;;;28.90;83.50;;;;;;5108037;28;20455;-68
2021/07/27 13:10:28;;;;;;;2.40;1.70;;;29.10;82.20;;;;;;5107871;28;20508;-68
2021/07/27 13:12:56;;;;;;;2.53;1.70;;;29.30;81.60;;;;;;5107939;28;20452;-68